sensor_id;sensor_type;location;lat;lon;timestamp;P1;durP1;ratioP1;P2;durP2;ratioP2
68438;SDS011;55421;51.600;5.718;2023-07-22T00:00:30;11.30;;;7.10;;
68438;SDS011;55421;51.600;5.718;2023-07-22T00:03:17;9.80;;;6.70;;
68438;SDS011;55421;51.600;5.718;2023-07-22T00:05:43;10.40;;;6.80;;
68438;SDS011;55421;51.600;5.718;2023-07-22T00:08:10;12.00;;;7.10;;
68438;SDS011;55421;51.600;5.718;2023-07-22T00:10:40;12.30;;;8.00;;
68438;SDS011;55421;51.600;5.718;2023-07-22T00:13:08;13.70;;;8.30;;
68438;SDS011;55421;51.600;5.718;2023-07-22T00:15:35;12.90;;;7.60;;
68438;SDS011;55421;51.600;5.718;2023-07-22T00:18:01;11.70;;;8.30;;
68438;SDS011;55421;51.600;5.718;2023-07-22T00:20:28;12.10;;;8.20;;
68438;SDS011;55421;51.600;5.718;2023-07-22T00:22:55;10.80;;;8.00;;
68438;SDS011;55421;51.600;5.718;2023-07-22T00:25:22;11.60;;;8.60;;
68438;SDS011;55421;51.600;5.718;2023-07-22T00:27:48;12.60;;;8.00;;
68438;SDS011;55421;51.600;5.718;2023-07-22T00:30:15;12.50;;;7.90;;
68438;SDS011;55421;51.600;5.718;2023-07-22T00:32:41;13.20;;;8.80;;
68438;SDS011;55421;51.600;5.718;2023-07-22T00:35:08;15.50;;;8.30;;
68438;SDS011;55421;51.600;5.718;2023-07-22T00:37:36;14.30;;;8.50;;
68438;SDS011;55421;51.600;5.718;2023-07-22T00:40:03;11.10;;;8.30;;
68438;SDS011;55421;51.600;5.718;2023-07-22T00:42:32;13.40;;;8.40;;
68438;SDS011;55421;51.600;5.718;2023-07-22T00:44:58;13.00;;;7.90;;
68438;SDS011;55421;51.600;5.718;2023-07-22T00:47:25;14.40;;;8.80;;
68438;SDS011;55421;51.600;5.718;2023-07-22T00:49:51;12.50;;;8.80;;
68438;SDS011;55421;51.600;5.718;2023-07-22T00:52:18;12.10;;;8.90;;
68438;SDS011;55421;51.600;5.718;2023-07-22T00:54:44;13.30;;;9.10;;
68438;SDS011;55421;51.600;5.718;2023-07-22T00:57:11;15.30;;;9.10;;
68438;SDS011;55421;51.600;5.718;2023-07-22T00:59:39;14.60;;;8.90;;
68438;SDS011;55421;51.600;5.718;2023-07-22T01:02:07;14.80;;;9.40;;
68438;SDS011;55421;51.600;5.718;2023-07-22T01:04:34;19.10;;;10.50;;
68438;SDS011;55421;51.600;5.718;2023-07-22T01:07:01;14.70;;;9.80;;
68438;SDS011;55421;51.600;5.718;2023-07-22T01:09:40;14.70;;;9.50;;
68438;SDS011;55421;51.600;5.718;2023-07-22T01:12:07;12.20;;;8.70;;
68438;SDS011;55421;51.600;5.718;2023-07-22T01:14:39;13.20;;;9.30;;
68438;SDS011;55421;51.600;5.718;2023-07-22T01:17:09;20.30;;;10.80;;
68438;SDS011;55421;51.600;5.718;2023-07-22T01:19:36;13.90;;;10.10;;
68438;SDS011;55421;51.600;5.718;2023-07-22T01:22:05;24.60;;;11.20;;
68438;SDS011;55421;51.600;5.718;2023-07-22T01:27:01;15.20;;;10.90;;
68438;SDS011;55421;51.600;5.718;2023-07-22T01:29:29;16.20;;;10.50;;
68438;SDS011;55421;51.600;5.718;2023-07-22T01:31:55;18.70;;;11.30;;
68438;SDS011;55421;51.600;5.718;2023-07-22T01:34:22;17.70;;;10.60;;
68438;SDS011;55421;51.600;5.718;2023-07-22T01:36:50;16.90;;;10.40;;
68438;SDS011;55421;51.600;5.718;2023-07-22T01:39:17;17.70;;;9.90;;
68438;SDS011;55421;51.600;5.718;2023-07-22T01:41:45;16.80;;;10.00;;
68438;SDS011;55421;51.600;5.718;2023-07-22T01:44:12;13.60;;;9.50;;
68438;SDS011;55421;51.600;5.718;2023-07-22T01:46:38;13.50;;;10.00;;
68438;SDS011;55421;51.600;5.718;2023-07-22T01:49:07;14.40;;;10.00;;
68438;SDS011;55421;51.600;5.718;2023-07-22T01:51:37;16.60;;;10.60;;
68438;SDS011;55421;51.600;5.718;2023-07-22T01:54:06;15.20;;;10.70;;
68438;SDS011;55421;51.600;5.718;2023-07-22T01:56:35;16.70;;;11.40;;
68438;SDS011;55421;51.600;5.718;2023-07-22T01:59:02;13.90;;;10.30;;
68438;SDS011;55421;51.600;5.718;2023-07-22T02:01:29;20.60;;;10.50;;
68438;SDS011;55421;51.600;5.718;2023-07-22T02:03:55;18.00;;;10.30;;
68438;SDS011;55421;51.600;5.718;2023-07-22T02:06:24;17.00;;;10.40;;
68438;SDS011;55421;51.600;5.718;2023-07-22T02:08:50;12.70;;;9.40;;
68438;SDS011;55421;51.600;5.718;2023-07-22T02:11:17;13.70;;;8.70;;
68438;SDS011;55421;51.600;5.718;2023-07-22T02:13:44;13.60;;;9.20;;
68438;SDS011;55421;51.600;5.718;2023-07-22T02:16:10;14.10;;;9.20;;
68438;SDS011;55421;51.600;5.718;2023-07-22T02:18:39;14.10;;;9.60;;
68438;SDS011;55421;51.600;5.718;2023-07-22T02:21:06;16.50;;;9.80;;
68438;SDS011;55421;51.600;5.718;2023-07-22T02:23:33;13.90;;;9.00;;
68438;SDS011;55421;51.600;5.718;2023-07-22T02:26:00;13.60;;;9.60;;
68438;SDS011;55421;51.600;5.718;2023-07-22T02:28:27;19.80;;;10.10;;
68438;SDS011;55421;51.600;5.718;2023-07-22T02:30:54;15.30;;;9.50;;
68438;SDS011;55421;51.600;5.718;2023-07-22T02:33:21;16.20;;;9.50;;
68438;SDS011;55421;51.600;5.718;2023-07-22T02:35:48;14.10;;;9.00;;
68438;SDS011;55421;51.600;5.718;2023-07-22T02:38:15;15.00;;;8.60;;
68438;SDS011;55421;51.600;5.718;2023-07-22T02:40:42;14.40;;;8.90;;
68438;SDS011;55421;51.600;5.718;2023-07-22T02:43:08;14.20;;;9.10;;
68438;SDS011;55421;51.600;5.718;2023-07-22T02:45:36;13.50;;;9.00;;
68438;SDS011;55421;51.600;5.718;2023-07-22T02:48:03;15.30;;;9.40;;
68438;SDS011;55421;51.600;5.718;2023-07-22T02:50:30;15.30;;;9.60;;
68438;SDS011;55421;51.600;5.718;2023-07-22T02:52:57;15.20;;;9.10;;
68438;SDS011;55421;51.600;5.718;2023-07-22T02:55:24;14.00;;;9.00;;
68438;SDS011;55421;51.600;5.718;2023-07-22T02:57:50;15.00;;;8.90;;
68438;SDS011;55421;51.600;5.718;2023-07-22T03:00:18;18.30;;;9.20;;
68438;SDS011;55421;51.600;5.718;2023-07-22T03:02:51;12.30;;;8.60;;
68438;SDS011;55421;51.600;5.718;2023-07-22T03:05:28;12.10;;;7.60;;
68438;SDS011;55421;51.600;5.718;2023-07-22T03:07:56;13.00;;;8.70;;
68438;SDS011;55421;51.600;5.718;2023-07-22T03:10:24;13.00;;;8.40;;
68438;SDS011;55421;51.600;5.718;2023-07-22T03:12:55;12.10;;;7.90;;
68438;SDS011;55421;51.600;5.718;2023-07-22T03:15:23;12.30;;;8.70;;
68438;SDS011;55421;51.600;5.718;2023-07-22T03:17:52;11.30;;;8.60;;
68438;SDS011;55421;51.600;5.718;2023-07-22T03:20:19;12.80;;;8.60;;
68438;SDS011;55421;51.600;5.718;2023-07-22T03:22:46;13.90;;;8.60;;
68438;SDS011;55421;51.600;5.718;2023-07-22T03:25:14;12.70;;;8.80;;
68438;SDS011;55421;51.600;5.718;2023-07-22T03:27:43;11.40;;;7.80;;
68438;SDS011;55421;51.600;5.718;2023-07-22T03:30:13;10.40;;;8.00;;
68438;SDS011;55421;51.600;5.718;2023-07-22T03:32:45;11.20;;;7.60;;
68438;SDS011;55421;51.600;5.718;2023-07-22T03:35:13;13.30;;;8.10;;
68438;SDS011;55421;51.600;5.718;2023-07-22T03:37:40;13.50;;;8.90;;
68438;SDS011;55421;51.600;5.718;2023-07-22T03:40:07;13.50;;;8.70;;
68438;SDS011;55421;51.600;5.718;2023-07-22T03:42:48;13.20;;;8.70;;
68438;SDS011;55421;51.600;5.718;2023-07-22T03:45:16;13.00;;;8.80;;
68438;SDS011;55421;51.600;5.718;2023-07-22T03:47:51;14.10;;;9.10;;
68438;SDS011;55421;51.600;5.718;2023-07-22T03:50:18;13.80;;;8.50;;
68438;SDS011;55421;51.600;5.718;2023-07-22T03:52:45;14.60;;;9.00;;
68438;SDS011;55421;51.600;5.718;2023-07-22T03:55:11;15.50;;;8.60;;
68438;SDS011;55421;51.600;5.718;2023-07-22T03:57:38;16.70;;;9.20;;
68438;SDS011;55421;51.600;5.718;2023-07-22T04:00:08;11.90;;;8.20;;
68438;SDS011;55421;51.600;5.718;2023-07-22T04:02:38;13.20;;;8.30;;
68438;SDS011;55421;51.600;5.718;2023-07-22T04:05:05;14.90;;;8.80;;
68438;SDS011;55421;51.600;5.718;2023-07-22T04:07:32;19.90;;;8.90;;
68438;SDS011;55421;51.600;5.718;2023-07-22T04:09:58;15.40;;;9.30;;
68438;SDS011;55421;51.600;5.718;2023-07-22T04:12:25;16.20;;;9.20;;
68438;SDS011;55421;51.600;5.718;2023-07-22T04:14:51;14.10;;;8.40;;
68438;SDS011;55421;51.600;5.718;2023-07-22T04:17:18;13.90;;;8.60;;
68438;SDS011;55421;51.600;5.718;2023-07-22T04:19:44;15.10;;;8.00;;
68438;SDS011;55421;51.600;5.718;2023-07-22T04:22:10;16.40;;;8.50;;
68438;SDS011;55421;51.600;5.718;2023-07-22T04:24:38;11.10;;;7.90;;
68438;SDS011;55421;51.600;5.718;2023-07-22T04:27:04;15.80;;;8.60;;
68438;SDS011;55421;51.600;5.718;2023-07-22T04:29:31;14.00;;;8.10;;
68438;SDS011;55421;51.600;5.718;2023-07-22T04:31:58;12.30;;;8.60;;
68438;SDS011;55421;51.600;5.718;2023-07-22T04:34:29;19.10;;;8.70;;
68438;SDS011;55421;51.600;5.718;2023-07-22T04:36:56;14.40;;;9.30;;
68438;SDS011;55421;51.600;5.718;2023-07-22T04:39:23;12.20;;;8.20;;
68438;SDS011;55421;51.600;5.718;2023-07-22T04:41:50;13.70;;;8.80;;
68438;SDS011;55421;51.600;5.718;2023-07-22T04:44:18;12.50;;;8.70;;
68438;SDS011;55421;51.600;5.718;2023-07-22T04:46:45;16.00;;;9.40;;
68438;SDS011;55421;51.600;5.718;2023-07-22T04:49:12;16.30;;;8.50;;
68438;SDS011;55421;51.600;5.718;2023-07-22T04:51:39;11.80;;;8.50;;
68438;SDS011;55421;51.600;5.718;2023-07-22T04:54:06;14.40;;;8.40;;
68438;SDS011;55421;51.600;5.718;2023-07-22T04:56:32;12.40;;;8.00;;
68438;SDS011;55421;51.600;5.718;2023-07-22T04:58:59;13.10;;;8.50;;
68438;SDS011;55421;51.600;5.718;2023-07-22T05:01:25;13.10;;;8.60;;
68438;SDS011;55421;51.600;5.718;2023-07-22T05:03:52;15.40;;;8.80;;
68438;SDS011;55421;51.600;5.718;2023-07-22T05:06:21;13.50;;;8.80;;
68438;SDS011;55421;51.600;5.718;2023-07-22T05:08:48;14.80;;;8.10;;
68438;SDS011;55421;51.600;5.718;2023-07-22T05:11:14;13.40;;;8.80;;
68438;SDS011;55421;51.600;5.718;2023-07-22T05:13:41;12.60;;;8.50;;
68438;SDS011;55421;51.600;5.718;2023-07-22T05:16:07;15.00;;;9.60;;
68438;SDS011;55421;51.600;5.718;2023-07-22T05:18:34;17.50;;;9.60;;
68438;SDS011;55421;51.600;5.718;2023-07-22T05:21:01;16.10;;;9.80;;
68438;SDS011;55421;51.600;5.718;2023-07-22T05:23:27;13.10;;;8.50;;
68438;SDS011;55421;51.600;5.718;2023-07-22T05:25:53;12.80;;;8.90;;
68438;SDS011;55421;51.600;5.718;2023-07-22T05:28:20;15.20;;;8.90;;
68438;SDS011;55421;51.600;5.718;2023-07-22T05:30:46;13.50;;;9.20;;
68438;SDS011;55421;51.600;5.718;2023-07-22T05:33:14;14.60;;;9.10;;
68438;SDS011;55421;51.600;5.718;2023-07-22T05:35:40;12.00;;;9.10;;
68438;SDS011;55421;51.600;5.718;2023-07-22T05:38:07;13.80;;;8.90;;
68438;SDS011;55421;51.600;5.718;2023-07-22T05:40:33;14.70;;;8.90;;
68438;SDS011;55421;51.600;5.718;2023-07-22T05:43:00;17.30;;;9.50;;
68438;SDS011;55421;51.600;5.718;2023-07-22T05:45:27;17.50;;;9.20;;
68438;SDS011;55421;51.600;5.718;2023-07-22T05:47:53;14.80;;;9.50;;
68438;SDS011;55421;51.600;5.718;2023-07-22T05:50:20;19.30;;;9.40;;
68438;SDS011;55421;51.600;5.718;2023-07-22T05:52:46;12.90;;;8.40;;
68438;SDS011;55421;51.600;5.718;2023-07-22T05:55:14;13.90;;;9.00;;
68438;SDS011;55421;51.600;5.718;2023-07-22T05:57:41;16.50;;;9.10;;
68438;SDS011;55421;51.600;5.718;2023-07-22T06:00:08;15.60;;;8.70;;
68438;SDS011;55421;51.600;5.718;2023-07-22T06:02:35;17.00;;;8.60;;
68438;SDS011;55421;51.600;5.718;2023-07-22T06:05:02;15.70;;;9.40;;
68438;SDS011;55421;51.600;5.718;2023-07-22T06:07:29;14.20;;;9.00;;
68438;SDS011;55421;51.600;5.718;2023-07-22T06:09:55;14.80;;;9.00;;
68438;SDS011;55421;51.600;5.718;2023-07-22T06:12:21;13.90;;;8.30;;
68438;SDS011;55421;51.600;5.718;2023-07-22T06:14:48;13.80;;;9.10;;
68438;SDS011;55421;51.600;5.718;2023-07-22T06:17:14;17.60;;;8.90;;
68438;SDS011;55421;51.600;5.718;2023-07-22T06:19:41;14.90;;;8.90;;
68438;SDS011;55421;51.600;5.718;2023-07-22T06:22:07;14.40;;;8.20;;
68438;SDS011;55421;51.600;5.718;2023-07-22T06:24:34;16.30;;;9.00;;
68438;SDS011;55421;51.600;5.718;2023-07-22T06:27:00;14.90;;;9.30;;
68438;SDS011;55421;51.600;5.718;2023-07-22T06:29:27;14.60;;;8.50;;
68438;SDS011;55421;51.600;5.718;2023-07-22T06:31:53;15.30;;;9.60;;
68438;SDS011;55421;51.600;5.718;2023-07-22T06:34:20;15.70;;;9.30;;
68438;SDS011;55421;51.600;5.718;2023-07-22T06:36:46;19.00;;;9.90;;
68438;SDS011;55421;51.600;5.718;2023-07-22T06:39:13;14.20;;;9.30;;
68438;SDS011;55421;51.600;5.718;2023-07-22T06:41:40;15.20;;;9.40;;
68438;SDS011;55421;51.600;5.718;2023-07-22T06:44:06;17.50;;;9.40;;
68438;SDS011;55421;51.600;5.718;2023-07-22T06:46:33;18.20;;;9.90;;
68438;SDS011;55421;51.600;5.718;2023-07-22T06:48:59;13.70;;;9.20;;
68438;SDS011;55421;51.600;5.718;2023-07-22T06:51:26;16.80;;;9.20;;
68438;SDS011;55421;51.600;5.718;2023-07-22T06:53:52;15.80;;;9.50;;
68438;SDS011;55421;51.600;5.718;2023-07-22T06:56:19;16.90;;;9.60;;
68438;SDS011;55421;51.600;5.718;2023-07-22T06:58:45;16.80;;;9.30;;
68438;SDS011;55421;51.600;5.718;2023-07-22T07:01:13;19.10;;;9.40;;
68438;SDS011;55421;51.600;5.718;2023-07-22T07:03:39;16.80;;;9.40;;
68438;SDS011;55421;51.600;5.718;2023-07-22T07:06:06;17.00;;;9.80;;
68438;SDS011;55421;51.600;5.718;2023-07-22T07:08:32;20.00;;;9.00;;
68438;SDS011;55421;51.600;5.718;2023-07-22T07:10:59;15.40;;;9.70;;
68438;SDS011;55421;51.600;5.718;2023-07-22T07:13:27;18.90;;;9.70;;
68438;SDS011;55421;51.600;5.718;2023-07-22T07:15:54;16.00;;;7.70;;
68438;SDS011;55421;51.600;5.718;2023-07-22T07:18:21;15.10;;;9.10;;
68438;SDS011;55421;51.600;5.718;2023-07-22T07:20:47;13.90;;;9.00;;
68438;SDS011;55421;51.600;5.718;2023-07-22T07:23:16;16.80;;;9.20;;
68438;SDS011;55421;51.600;5.718;2023-07-22T07:25:43;17.20;;;9.60;;
68438;SDS011;55421;51.600;5.718;2023-07-22T07:28:09;14.50;;;9.30;;
68438;SDS011;55421;51.600;5.718;2023-07-22T07:30:37;15.20;;;9.00;;
68438;SDS011;55421;51.600;5.718;2023-07-22T07:33:04;12.80;;;8.80;;
68438;SDS011;55421;51.600;5.718;2023-07-22T07:35:30;16.40;;;9.00;;
68438;SDS011;55421;51.600;5.718;2023-07-22T07:37:57;23.60;;;9.30;;
68438;SDS011;55421;51.600;5.718;2023-07-22T07:40:23;16.10;;;9.30;;
68438;SDS011;55421;51.600;5.718;2023-07-22T07:42:50;14.20;;;8.50;;
68438;SDS011;55421;51.600;5.718;2023-07-22T07:45:16;15.80;;;8.50;;
68438;SDS011;55421;51.600;5.718;2023-07-22T07:47:43;16.70;;;9.10;;
68438;SDS011;55421;51.600;5.718;2023-07-22T07:50:09;16.40;;;9.00;;
68438;SDS011;55421;51.600;5.718;2023-07-22T07:52:36;14.90;;;9.20;;
68438;SDS011;55421;51.600;5.718;2023-07-22T07:55:05;16.80;;;8.80;;
68438;SDS011;55421;51.600;5.718;2023-07-22T07:57:31;19.50;;;8.20;;
68438;SDS011;55421;51.600;5.718;2023-07-22T07:59:58;13.30;;;8.50;;
68438;SDS011;55421;51.600;5.718;2023-07-22T08:02:24;16.60;;;9.30;;
68438;SDS011;55421;51.600;5.718;2023-07-22T08:04:51;13.50;;;7.80;;
68438;SDS011;55421;51.600;5.718;2023-07-22T08:07:17;13.20;;;8.20;;
68438;SDS011;55421;51.600;5.718;2023-07-22T08:09:46;10.00;;;6.50;;
68438;SDS011;55421;51.600;5.718;2023-07-22T08:12:15;10.90;;;7.30;;
68438;SDS011;55421;51.600;5.718;2023-07-22T08:14:42;15.90;;;8.20;;
68438;SDS011;55421;51.600;5.718;2023-07-22T08:17:08;16.30;;;8.10;;
68438;SDS011;55421;51.600;5.718;2023-07-22T08:19:35;13.80;;;7.10;;
68438;SDS011;55421;51.600;5.718;2023-07-22T08:22:01;13.40;;;7.30;;
68438;SDS011;55421;51.600;5.718;2023-07-22T08:24:28;17.90;;;8.00;;
68438;SDS011;55421;51.600;5.718;2023-07-22T08:26:54;13.40;;;7.50;;
68438;SDS011;55421;51.600;5.718;2023-07-22T08:29:20;14.50;;;7.60;;
68438;SDS011;55421;51.600;5.718;2023-07-22T08:31:47;15.90;;;8.00;;
68438;SDS011;55421;51.600;5.718;2023-07-22T08:34:14;12.00;;;6.90;;
68438;SDS011;55421;51.600;5.718;2023-07-22T08:36:41;11.70;;;6.80;;
68438;SDS011;55421;51.600;5.718;2023-07-22T08:39:08;13.50;;;6.80;;
68438;SDS011;55421;51.600;5.718;2023-07-22T08:41:35;12.60;;;7.10;;
68438;SDS011;55421;51.600;5.718;2023-07-22T08:44:04;10.30;;;6.30;;
68438;SDS011;55421;51.600;5.718;2023-07-22T08:46:33;11.60;;;6.30;;
68438;SDS011;55421;51.600;5.718;2023-07-22T08:49:00;11.30;;;6.20;;
68438;SDS011;55421;51.600;5.718;2023-07-22T08:51:27;7.60;;;4.90;;
68438;SDS011;55421;51.600;5.718;2023-07-22T08:53:56;8.40;;;5.70;;
68438;SDS011;55421;51.600;5.718;2023-07-22T08:56:27;5.40;;;3.80;;
68438;SDS011;55421;51.600;5.718;2023-07-22T08:58:55;10.50;;;6.20;;
68438;SDS011;55421;51.600;5.718;2023-07-22T09:01:23;10.40;;;5.50;;
68438;SDS011;55421;51.600;5.718;2023-07-22T09:03:49;10.30;;;5.60;;
68438;SDS011;55421;51.600;5.718;2023-07-22T09:06:19;8.60;;;5.40;;
68438;SDS011;55421;51.600;5.718;2023-07-22T09:08:46;8.70;;;5.20;;
68438;SDS011;55421;51.600;5.718;2023-07-22T09:11:14;7.70;;;4.90;;
68438;SDS011;55421;51.600;5.718;2023-07-22T09:13:44;8.00;;;4.70;;
68438;SDS011;55421;51.600;5.718;2023-07-22T09:16:12;6.60;;;4.70;;
68438;SDS011;55421;51.600;5.718;2023-07-22T09:18:41;9.00;;;5.00;;
68438;SDS011;55421;51.600;5.718;2023-07-22T09:21:08;8.90;;;4.70;;
68438;SDS011;55421;51.600;5.718;2023-07-22T09:23:37;8.20;;;4.00;;
68438;SDS011;55421;51.600;5.718;2023-07-22T09:26:15;9.20;;;4.30;;
68438;SDS011;55421;51.600;5.718;2023-07-22T09:28:54;6.00;;;4.30;;
68438;SDS011;55421;51.600;5.718;2023-07-22T09:31:23;7.60;;;4.00;;
68438;SDS011;55421;51.600;5.718;2023-07-22T09:33:52;7.20;;;4.00;;
68438;SDS011;55421;51.600;5.718;2023-07-22T09:36:22;7.60;;;4.10;;
68438;SDS011;55421;51.600;5.718;2023-07-22T09:38:59;7.50;;;4.10;;
68438;SDS011;55421;51.600;5.718;2023-07-22T09:41:29;9.80;;;4.40;;
68438;SDS011;55421;51.600;5.718;2023-07-22T09:43:56;7.40;;;4.10;;
68438;SDS011;55421;51.600;5.718;2023-07-22T09:46:31;6.40;;;3.90;;
68438;SDS011;55421;51.600;5.718;2023-07-22T09:49:02;7.50;;;3.60;;
68438;SDS011;55421;51.600;5.718;2023-07-22T09:51:40;5.70;;;3.70;;
68438;SDS011;55421;51.600;5.718;2023-07-22T09:54:07;6.90;;;4.30;;
68438;SDS011;55421;51.600;5.718;2023-07-22T09:56:48;5.20;;;3.60;;
68438;SDS011;55421;51.600;5.718;2023-07-22T09:59:18;3.80;;;3.20;;
68438;SDS011;55421;51.600;5.718;2023-07-22T10:01:46;3.90;;;3.50;;
68438;SDS011;55421;51.600;5.718;2023-07-22T10:04:16;5.60;;;4.10;;
68438;SDS011;55421;51.600;5.718;2023-07-22T10:06:43;6.40;;;3.70;;
68438;SDS011;55421;51.600;5.718;2023-07-22T10:09:11;7.10;;;4.40;;
68438;SDS011;55421;51.600;5.718;2023-07-22T10:11:39;5.00;;;3.70;;
68438;SDS011;55421;51.600;5.718;2023-07-22T10:14:05;5.30;;;3.80;;
68438;SDS011;55421;51.600;5.718;2023-07-22T10:16:33;5.20;;;3.90;;
68438;SDS011;55421;51.600;5.718;2023-07-22T10:19:02;7.40;;;3.90;;
68438;SDS011;55421;51.600;5.718;2023-07-22T10:21:30;8.50;;;4.20;;
68438;SDS011;55421;51.600;5.718;2023-07-22T10:24:00;6.30;;;3.80;;
68438;SDS011;55421;51.600;5.718;2023-07-22T10:26:29;5.00;;;3.70;;
68438;SDS011;55421;51.600;5.718;2023-07-22T10:28:56;9.70;;;6.90;;
68438;SDS011;55421;51.600;5.718;2023-07-22T10:31:24;7.50;;;5.60;;
68438;SDS011;55421;51.600;5.718;2023-07-22T10:33:51;8.50;;;6.10;;
68438;SDS011;55421;51.600;5.718;2023-07-22T10:36:18;8.10;;;4.70;;
68438;SDS011;55421;51.600;5.718;2023-07-22T10:38:55;10.10;;;4.00;;
68438;SDS011;55421;51.600;5.718;2023-07-22T10:41:23;7.50;;;4.70;;
68438;SDS011;55421;51.600;5.718;2023-07-22T10:43:56;8.80;;;4.40;;
68438;SDS011;55421;51.600;5.718;2023-07-22T10:46:35;9.30;;;4.60;;
68438;SDS011;55421;51.600;5.718;2023-07-22T10:49:09;8.00;;;4.80;;
68438;SDS011;55421;51.600;5.718;2023-07-22T10:51:40;6.40;;;3.90;;
68438;SDS011;55421;51.600;5.718;2023-07-22T10:54:11;6.80;;;4.10;;
68438;SDS011;55421;51.600;5.718;2023-07-22T10:56:42;7.70;;;3.90;;
68438;SDS011;55421;51.600;5.718;2023-07-22T10:59:11;7.90;;;3.50;;
68438;SDS011;55421;51.600;5.718;2023-07-22T11:01:43;7.00;;;3.40;;
68438;SDS011;55421;51.600;5.718;2023-07-22T11:11:55;4.80;;;2.80;;
68438;SDS011;55421;51.600;5.718;2023-07-22T11:14:45;7.10;;;2.60;;
68438;SDS011;55421;51.600;5.718;2023-07-22T11:17:28;4.10;;;2.50;;
68438;SDS011;55421;51.600;5.718;2023-07-22T11:19:57;5.60;;;2.40;;
68438;SDS011;55421;51.600;5.718;2023-07-22T11:22:25;3.50;;;2.50;;
68438;SDS011;55421;51.600;5.718;2023-07-22T11:24:52;7.90;;;2.60;;
68438;SDS011;55421;51.600;5.718;2023-07-22T11:27:19;5.00;;;2.40;;
68438;SDS011;55421;51.600;5.718;2023-07-22T11:29:48;2.90;;;2.10;;
68438;SDS011;55421;51.600;5.718;2023-07-22T11:32:16;4.60;;;2.10;;
68438;SDS011;55421;51.600;5.718;2023-07-22T11:34:44;6.10;;;2.00;;
68438;SDS011;55421;51.600;5.718;2023-07-22T11:37:11;2.10;;;1.90;;
68438;SDS011;55421;51.600;5.718;2023-07-22T11:39:37;2.10;;;1.60;;
68438;SDS011;55421;51.600;5.718;2023-07-22T11:42:05;3.30;;;1.90;;
68438;SDS011;55421;51.600;5.718;2023-07-22T11:44:32;2.30;;;1.60;;
68438;SDS011;55421;51.600;5.718;2023-07-22T11:47:02;4.10;;;1.80;;
68438;SDS011;55421;51.600;5.718;2023-07-22T11:49:40;3.30;;;1.50;;
68438;SDS011;55421;51.600;5.718;2023-07-22T11:52:09;4.30;;;1.70;;
68438;SDS011;55421;51.600;5.718;2023-07-22T11:54:42;1.60;;;1.40;;
68438;SDS011;55421;51.600;5.718;2023-07-22T11:57:16;1.80;;;1.50;;
68438;SDS011;55421;51.600;5.718;2023-07-22T11:59:48;2.20;;;1.60;;
68438;SDS011;55421;51.600;5.718;2023-07-22T12:02:23;2.40;;;1.80;;
68438;SDS011;55421;51.600;5.718;2023-07-22T12:04:54;2.10;;;1.70;;
68438;SDS011;55421;51.600;5.718;2023-07-22T12:07:29;2.40;;;1.60;;
68438;SDS011;55421;51.600;5.718;2023-07-22T12:10:00;4.40;;;2.10;;
68438;SDS011;55421;51.600;5.718;2023-07-22T12:12:39;3.30;;;1.70;;
68438;SDS011;55421;51.600;5.718;2023-07-22T12:15:19;1.80;;;1.60;;
68438;SDS011;55421;51.600;5.718;2023-07-22T12:17:55;2.30;;;1.80;;
68438;SDS011;55421;51.600;5.718;2023-07-22T12:22:56;2.90;;;2.00;;
68438;SDS011;55421;51.600;5.718;2023-07-22T12:25:24;2.70;;;1.70;;
68438;SDS011;55421;51.600;5.718;2023-07-22T12:27:51;2.10;;;1.70;;
68438;SDS011;55421;51.600;5.718;2023-07-22T12:30:18;3.00;;;1.80;;
68438;SDS011;55421;51.600;5.718;2023-07-22T12:32:46;2.00;;;1.80;;
68438;SDS011;55421;51.600;5.718;2023-07-22T12:35:14;2.60;;;1.60;;
68438;SDS011;55421;51.600;5.718;2023-07-22T12:37:40;2.40;;;1.50;;
68438;SDS011;55421;51.600;5.718;2023-07-22T12:40:07;3.00;;;2.00;;
68438;SDS011;55421;51.600;5.718;2023-07-22T12:42:35;1.60;;;1.50;;
68438;SDS011;55421;51.600;5.718;2023-07-22T12:45:03;2.20;;;1.70;;
68438;SDS011;55421;51.600;5.718;2023-07-22T12:47:31;3.20;;;2.20;;
68438;SDS011;55421;51.600;5.718;2023-07-22T12:49:58;2.90;;;2.40;;
68438;SDS011;55421;51.600;5.718;2023-07-22T12:52:24;4.20;;;1.60;;
68438;SDS011;55421;51.600;5.718;2023-07-22T12:54:51;8.60;;;2.40;;
68438;SDS011;55421;51.600;5.718;2023-07-22T12:57:17;3.80;;;1.80;;
68438;SDS011;55421;51.600;5.718;2023-07-22T12:59:44;2.10;;;1.90;;
68438;SDS011;55421;51.600;5.718;2023-07-22T13:02:11;3.00;;;2.10;;
68438;SDS011;55421;51.600;5.718;2023-07-22T13:04:37;2.30;;;1.70;;
68438;SDS011;55421;51.600;5.718;2023-07-22T13:07:04;2.20;;;1.90;;
68438;SDS011;55421;51.600;5.718;2023-07-22T13:09:31;3.80;;;1.90;;
68438;SDS011;55421;51.600;5.718;2023-07-22T13:11:57;2.20;;;2.00;;
68438;SDS011;55421;51.600;5.718;2023-07-22T13:14:24;3.60;;;1.70;;
68438;SDS011;55421;51.600;5.718;2023-07-22T13:16:50;2.00;;;1.80;;
68438;SDS011;55421;51.600;5.718;2023-07-22T13:19:17;2.20;;;1.90;;
68438;SDS011;55421;51.600;5.718;2023-07-22T13:21:43;2.60;;;1.90;;
68438;SDS011;55421;51.600;5.718;2023-07-22T13:24:10;3.10;;;1.60;;
68438;SDS011;55421;51.600;5.718;2023-07-22T13:26:36;3.50;;;1.70;;
68438;SDS011;55421;51.600;5.718;2023-07-22T13:29:02;2.00;;;1.80;;
68438;SDS011;55421;51.600;5.718;2023-07-22T13:31:29;2.10;;;1.40;;
68438;SDS011;55421;51.600;5.718;2023-07-22T13:33:55;1.70;;;1.60;;
68438;SDS011;55421;51.600;5.718;2023-07-22T13:36:22;3.20;;;2.00;;
68438;SDS011;55421;51.600;5.718;2023-07-22T13:38:48;4.10;;;1.80;;
68438;SDS011;55421;51.600;5.718;2023-07-22T13:41:15;3.00;;;2.00;;
68438;SDS011;55421;51.600;5.718;2023-07-22T13:43:41;3.20;;;1.90;;
68438;SDS011;55421;51.600;5.718;2023-07-22T13:46:08;2.60;;;1.80;;
68438;SDS011;55421;51.600;5.718;2023-07-22T13:48:34;1.70;;;1.50;;
68438;SDS011;55421;51.600;5.718;2023-07-22T13:51:01;1.90;;;1.60;;
68438;SDS011;55421;51.600;5.718;2023-07-22T13:53:27;2.50;;;1.70;;
68438;SDS011;55421;51.600;5.718;2023-07-22T13:55:54;1.80;;;1.60;;
68438;SDS011;55421;51.600;5.718;2023-07-22T13:58:20;3.80;;;1.80;;
68438;SDS011;55421;51.600;5.718;2023-07-22T14:00:47;5.30;;;1.50;;
68438;SDS011;55421;51.600;5.718;2023-07-22T14:03:14;2.40;;;1.50;;
68438;SDS011;55421;51.600;5.718;2023-07-22T14:05:41;2.80;;;1.40;;
68438;SDS011;55421;51.600;5.718;2023-07-22T14:08:07;1.90;;;1.50;;
68438;SDS011;55421;51.600;5.718;2023-07-22T14:10:35;2.70;;;1.40;;
68438;SDS011;55421;51.600;5.718;2023-07-22T14:13:01;2.10;;;1.40;;
68438;SDS011;55421;51.600;5.718;2023-07-22T14:15:28;1.40;;;1.30;;
68438;SDS011;55421;51.600;5.718;2023-07-22T14:17:55;1.50;;;1.40;;
68438;SDS011;55421;51.600;5.718;2023-07-22T14:20:22;11.10;;;2.00;;
68438;SDS011;55421;51.600;5.718;2023-07-22T14:22:48;1.60;;;1.10;;
68438;SDS011;55421;51.600;5.718;2023-07-22T14:25:17;1.60;;;1.40;;
68438;SDS011;55421;51.600;5.718;2023-07-22T14:27:45;3.00;;;1.30;;
68438;SDS011;55421;51.600;5.718;2023-07-22T14:30:11;2.40;;;1.30;;
68438;SDS011;55421;51.600;5.718;2023-07-22T14:32:38;2.60;;;1.40;;
68438;SDS011;55421;51.600;5.718;2023-07-22T14:35:05;1.50;;;1.40;;
68438;SDS011;55421;51.600;5.718;2023-07-22T14:37:32;1.70;;;1.30;;
68438;SDS011;55421;51.600;5.718;2023-07-22T14:39:59;2.20;;;1.30;;
68438;SDS011;55421;51.600;5.718;2023-07-22T14:42:25;2.10;;;1.50;;
68438;SDS011;55421;51.600;5.718;2023-07-22T14:44:52;3.90;;;1.30;;
68438;SDS011;55421;51.600;5.718;2023-07-22T14:47:19;1.80;;;1.60;;
68438;SDS011;55421;51.600;5.718;2023-07-22T14:49:45;1.30;;;1.20;;
68438;SDS011;55421;51.600;5.718;2023-07-22T14:52:12;1.60;;;1.40;;
68438;SDS011;55421;51.600;5.718;2023-07-22T14:54:38;1.60;;;1.40;;